sensor_id;sensor_type;location;lat;lon;timestamp;P1;durP1;ratioP1;P2;durP2;ratioP2
10711;SDS011;5407;51.234;6.804;2022-10-18T00:00:53;2.15;;;1.40;;
10711;SDS011;5407;51.234;6.804;2022-10-18T00:03:20;1.40;;;1.30;;
10711;SDS011;5407;51.234;6.804;2022-10-18T00:05:47;1.75;;;1.30;;
10711;SDS011;5407;51.234;6.804;2022-10-18T00:08:16;2.83;;;1.38;;
10711;SDS011;5407;51.234;6.804;2022-10-18T00:10:43;1.50;;;1.40;;
10711;SDS011;5407;51.234;6.804;2022-10-18T00:13:12;1.40;;;1.30;;
10711;SDS011;5407;51.234;6.804;2022-10-18T00:15:39;1.40;;;1.30;;
10711;SDS011;5407;51.234;6.804;2022-10-18T00:18:14;1.40;;;1.30;;
10711;SDS011;5407;51.234;6.804;2022-10-18T00:20:40;1.50;;;1.30;;
10711;SDS011;5407;51.234;6.804;2022-10-18T00:23:07;1.65;;;1.20;;
10711;SDS011;5407;51.234;6.804;2022-10-18T00:25:34;1.27;;;1.17;;
10711;SDS011;5407;51.234;6.804;2022-10-18T00:28:01;2.75;;;1.40;;
10711;SDS011;5407;51.234;6.804;2022-10-18T00:30:29;1.30;;;1.20;;
10711;SDS011;5407;51.234;6.804;2022-10-18T00:32:56;1.63;;;1.50;;
10711;SDS011;5407;51.234;6.804;2022-10-18T00:35:23;1.30;;;1.20;;
10711;SDS011;5407;51.234;6.804;2022-10-18T00:37:50;1.00;;;1.00;;
10711;SDS011;5407;51.234;6.804;2022-10-18T00:40:17;3.67;;;1.25;;
10711;SDS011;5407;51.234;6.804;2022-10-18T00:42:44;1.30;;;1.20;;
10711;SDS011;5407;51.234;6.804;2022-10-18T00:45:16;1.98;;;1.10;;
10711;SDS011;5407;51.234;6.804;2022-10-18T00:47:47;1.42;;;1.33;;
10711;SDS011;5407;51.234;6.804;2022-10-18T00:50:19;1.50;;;1.40;;
10711;SDS011;5407;51.234;6.804;2022-10-18T00:52:50;2.55;;;1.48;;
10711;SDS011;5407;51.234;6.804;2022-10-18T00:55:19;1.30;;;1.20;;
10711;SDS011;5407;51.234;6.804;2022-10-18T00:57:46;1.30;;;1.20;;
10711;SDS011;5407;51.234;6.804;2022-10-18T01:00:15;1.00;;;1.00;;
10711;SDS011;5407;51.234;6.804;2022-10-18T01:02:43;1.30;;;1.20;;
10711;SDS011;5407;51.234;6.804;2022-10-18T01:05:13;2.58;;;1.33;;
10711;SDS011;5407;51.234;6.804;2022-10-18T01:07:47;1.30;;;1.20;;
10711;SDS011;5407;51.234;6.804;2022-10-18T01:10:26;1.65;;;1.30;;
10711;SDS011;5407;51.234;6.804;2022-10-18T01:13:04;1.30;;;1.20;;
10711;SDS011;5407;51.234;6.804;2022-10-18T01:15:40;2.03;;;1.25;;
10711;SDS011;5407;51.234;6.804;2022-10-18T01:18:18;1.75;;;1.40;;
10711;SDS011;5407;51.234;6.804;2022-10-18T01:24:02;2.03;;;1.13;;
10711;SDS011;5407;51.234;6.804;2022-10-18T01:27:00;1.20;;;1.10;;
10711;SDS011;5407;51.234;6.804;2022-10-18T01:29:57;2.92;;;1.20;;
10711;SDS011;5407;51.234;6.804;2022-10-18T01:32:40;1.27;;;1.08;;
10711;SDS011;5407;51.234;6.804;2022-10-18T01:35:14;0.98;;;0.98;;
10711;SDS011;5407;51.234;6.804;2022-10-18T01:37:45;1.48;;;1.27;;
10711;SDS011;5407;51.234;6.804;2022-10-18T01:40:16;1.20;;;1.10;;
10711;SDS011;5407;51.234;6.804;2022-10-18T01:42:46;1.10;;;1.02;;
10711;SDS011;5407;51.234;6.804;2022-10-18T01:45:15;1.20;;;1.10;;
10711;SDS011;5407;51.234;6.804;2022-10-18T01:47:45;1.02;;;1.02;;
10711;SDS011;5407;51.234;6.804;2022-10-18T01:50:13;1.40;;;1.30;;
10711;SDS011;5407;51.234;6.804;2022-10-18T01:52:46;1.65;;;1.10;;
10711;SDS011;5407;51.234;6.804;2022-10-18T01:55:14;2.42;;;1.10;;
10711;SDS011;5407;51.234;6.804;2022-10-18T01:57:41;1.67;;;1.20;;
10711;SDS011;5407;51.234;6.804;2022-10-18T02:00:26;1.10;;;1.00;;
10711;SDS011;5407;51.234;6.804;2022-10-18T02:03:05;1.33;;;1.13;;
10711;SDS011;5407;51.234;6.804;2022-10-18T02:05:42;1.00;;;1.00;;
10711;SDS011;5407;51.234;6.804;2022-10-18T02:08:16;1.30;;;1.20;;
10711;SDS011;5407;51.234;6.804;2022-10-18T02:10:51;1.20;;;1.10;;
10711;SDS011;5407;51.234;6.804;2022-10-18T02:13:21;1.30;;;1.20;;
10711;SDS011;5407;51.234;6.804;2022-10-18T02:15:53;1.20;;;1.10;;
10711;SDS011;5407;51.234;6.804;2022-10-18T02:18:27;1.10;;;1.00;;
10711;SDS011;5407;51.234;6.804;2022-10-18T02:20:58;0.90;;;0.90;;
10711;SDS011;5407;51.234;6.804;2022-10-18T02:23:28;1.25;;;1.10;;
10711;SDS011;5407;51.234;6.804;2022-10-18T02:25:56;1.02;;;1.02;;
10711;SDS011;5407;51.234;6.804;2022-10-18T02:28:23;1.48;;;1.38;;
10711;SDS011;5407;51.234;6.804;2022-10-18T02:30:50;1.55;;;1.10;;
10711;SDS011;5407;51.234;6.804;2022-10-18T02:33:26;1.20;;;1.10;;
10711;SDS011;5407;51.234;6.804;2022-10-18T02:36:04;1.75;;;1.13;;
10711;SDS011;5407;51.234;6.804;2022-10-18T02:38:35;0.90;;;0.90;;
10711;SDS011;5407;51.234;6.804;2022-10-18T02:41:04;1.25;;;1.15;;
10711;SDS011;5407;51.234;6.804;2022-10-18T02:43:31;1.20;;;1.10;;
10711;SDS011;5407;51.234;6.804;2022-10-18T02:45:59;1.60;;;1.20;;
10711;SDS011;5407;51.234;6.804;2022-10-18T02:48:27;1.10;;;1.00;;
10711;SDS011;5407;51.234;6.804;2022-10-18T02:50:55;1.08;;;1.08;;
10711;SDS011;5407;51.234;6.804;2022-10-18T02:53:22;1.02;;;0.95;;
10711;SDS011;5407;51.234;6.804;2022-10-18T02:55:49;1.30;;;1.20;;
10711;SDS011;5407;51.234;6.804;2022-10-18T02:58:15;1.00;;;0.98;;
10711;SDS011;5407;51.234;6.804;2022-10-18T03:00:42;1.10;;;1.10;;
10711;SDS011;5407;51.234;6.804;2022-10-18T03:03:09;1.20;;;1.10;;
10711;SDS011;5407;51.234;6.804;2022-10-18T03:05:36;1.92;;;1.08;;
10711;SDS011;5407;51.234;6.804;2022-10-18T03:08:04;0.80;;;0.80;;
10711;SDS011;5407;51.234;6.804;2022-10-18T03:10:31;1.38;;;1.20;;
10711;SDS011;5407;51.234;6.804;2022-10-18T03:12:58;0.98;;;0.95;;
10711;SDS011;5407;51.234;6.804;2022-10-18T03:15:25;1.33;;;1.17;;
10711;SDS011;5407;51.234;6.804;2022-10-18T03:17:51;1.10;;;1.00;;
10711;SDS011;5407;51.234;6.804;2022-10-18T03:20:18;1.23;;;1.13;;
10711;SDS011;5407;51.234;6.804;2022-10-18T03:22:45;1.45;;;1.10;;
10711;SDS011;5407;51.234;6.804;2022-10-18T03:25:13;1.45;;;1.00;;
10711;SDS011;5407;51.234;6.804;2022-10-18T03:27:40;1.00;;;1.00;;
10711;SDS011;5407;51.234;6.804;2022-10-18T03:30:07;2.75;;;1.05;;
10711;SDS011;5407;51.234;6.804;2022-10-18T03:32:35;1.65;;;1.13;;
10711;SDS011;5407;51.234;6.804;2022-10-18T03:35:02;1.30;;;1.20;;
10711;SDS011;5407;51.234;6.804;2022-10-18T03:37:30;1.10;;;1.00;;
10711;SDS011;5407;51.234;6.804;2022-10-18T03:39:56;1.30;;;1.20;;
10711;SDS011;5407;51.234;6.804;2022-10-18T03:42:25;1.00;;;1.00;;
10711;SDS011;5407;51.234;6.804;2022-10-18T03:44:52;1.27;;;1.10;;
10711;SDS011;5407;51.234;6.804;2022-10-18T03:47:19;1.20;;;1.10;;
10711;SDS011;5407;51.234;6.804;2022-10-18T03:49:45;1.15;;;0.90;;
10711;SDS011;5407;51.234;6.804;2022-10-18T03:52:12;0.90;;;0.90;;
10711;SDS011;5407;51.234;6.804;2022-10-18T03:54:39;1.08;;;1.00;;
10711;SDS011;5407;51.234;6.804;2022-10-18T03:57:06;1.25;;;1.05;;
10711;SDS011;5407;51.234;6.804;2022-10-18T03:59:34;1.30;;;0.95;;
10711;SDS011;5407;51.234;6.804;2022-10-18T04:02:01;1.10;;;1.00;;
10711;SDS011;5407;51.234;6.804;2022-10-18T04:04:27;1.10;;;1.02;;
10711;SDS011;5407;51.234;6.804;2022-10-18T04:06:54;0.88;;;0.88;;
10711;SDS011;5407;51.234;6.804;2022-10-18T04:09:21;1.20;;;1.10;;
10711;SDS011;5407;51.234;6.804;2022-10-18T04:11:48;1.10;;;1.10;;
10711;SDS011;5407;51.234;6.804;2022-10-18T04:14:15;1.88;;;1.10;;
10711;SDS011;5407;51.234;6.804;2022-10-18T04:16:46;1.00;;;1.00;;
10711;SDS011;5407;51.234;6.804;2022-10-18T04:19:13;1.00;;;1.00;;
10711;SDS011;5407;51.234;6.804;2022-10-18T04:21:40;1.00;;;1.00;;
10711;SDS011;5407;51.234;6.804;2022-10-18T04:24:07;1.00;;;1.00;;
10711;SDS011;5407;51.234;6.804;2022-10-18T04:26:34;1.10;;;1.00;;
10711;SDS011;5407;51.234;6.804;2022-10-18T04:29:01;1.05;;;0.95;;
10711;SDS011;5407;51.234;6.804;2022-10-18T04:31:27;1.13;;;1.10;;
10711;SDS011;5407;51.234;6.804;2022-10-18T04:33:56;1.27;;;1.17;;
10711;SDS011;5407;51.234;6.804;2022-10-18T04:36:23;1.35;;;0.98;;
10711;SDS011;5407;51.234;6.804;2022-10-18T04:38:50;1.00;;;1.00;;
10711;SDS011;5407;51.234;6.804;2022-10-18T04:41:16;1.20;;;1.10;;
10711;SDS011;5407;51.234;6.804;2022-10-18T04:43:43;0.90;;;0.90;;
10711;SDS011;5407;51.234;6.804;2022-10-18T04:46:10;1.20;;;1.10;;
10711;SDS011;5407;51.234;6.804;2022-10-18T04:48:37;1.45;;;1.10;;
10711;SDS011;5407;51.234;6.804;2022-10-18T04:51:05;3.80;;;1.35;;
10711;SDS011;5407;51.234;6.804;2022-10-18T04:53:32;0.90;;;0.90;;
10711;SDS011;5407;51.234;6.804;2022-10-18T04:55:59;1.05;;;1.05;;
10711;SDS011;5407;51.234;6.804;2022-10-18T04:58:26;0.98;;;0.98;;
10711;SDS011;5407;51.234;6.804;2022-10-18T05:00:53;0.73;;;0.73;;
10711;SDS011;5407;51.234;6.804;2022-10-18T05:03:19;1.17;;;1.08;;
10711;SDS011;5407;51.234;6.804;2022-10-18T05:05:46;2.72;;;1.13;;
10711;SDS011;5407;51.234;6.804;2022-10-18T05:08:14;1.15;;;1.05;;
10711;SDS011;5407;51.234;6.804;2022-10-18T05:10:41;1.35;;;1.02;;
10711;SDS011;5407;51.234;6.804;2022-10-18T05:13:08;0.88;;;0.88;;
10711;SDS011;5407;51.234;6.804;2022-10-18T05:15:35;1.05;;;1.00;;
10711;SDS011;5407;51.234;6.804;2022-10-18T05:18:02;1.42;;;1.20;;
10711;SDS011;5407;51.234;6.804;2022-10-18T05:20:32;1.70;;;1.10;;
10711;SDS011;5407;51.234;6.804;2022-10-18T05:22:59;0.93;;;0.90;;
10711;SDS011;5407;51.234;6.804;2022-10-18T05:25:27;1.67;;;1.00;;
10711;SDS011;5407;51.234;6.804;2022-10-18T05:27:54;1.17;;;1.10;;
10711;SDS011;5407;51.234;6.804;2022-10-18T05:30:21;1.23;;;1.13;;
10711;SDS011;5407;51.234;6.804;2022-10-18T05:32:48;1.17;;;1.08;;
10711;SDS011;5407;51.234;6.804;2022-10-18T05:35:14;1.50;;;0.90;;
10711;SDS011;5407;51.234;6.804;2022-10-18T05:37:41;1.42;;;1.10;;
10711;SDS011;5407;51.234;6.804;2022-10-18T05:40:08;1.33;;;1.10;;
10711;SDS011;5407;51.234;6.804;2022-10-18T05:42:37;0.90;;;0.90;;
10711;SDS011;5407;51.234;6.804;2022-10-18T05:45:04;1.73;;;1.27;;
10711;SDS011;5407;51.234;6.804;2022-10-18T05:47:32;1.48;;;1.17;;
10711;SDS011;5407;51.234;6.804;2022-10-18T05:49:59;1.25;;;1.15;;
10711;SDS011;5407;51.234;6.804;2022-10-18T05:52:25;1.27;;;1.00;;
10711;SDS011;5407;51.234;6.804;2022-10-18T05:54:53;1.08;;;1.00;;
10711;SDS011;5407;51.234;6.804;2022-10-18T05:57:19;2.85;;;1.15;;
10711;SDS011;5407;51.234;6.804;2022-10-18T05:59:48;4.47;;;1.20;;
10711;SDS011;5407;51.234;6.804;2022-10-18T06:02:14;1.85;;;1.23;;
10711;SDS011;5407;51.234;6.804;2022-10-18T06:04:41;1.08;;;1.08;;
10711;SDS011;5407;51.234;6.804;2022-10-18T06:07:08;1.27;;;1.17;;
10711;SDS011;5407;51.234;6.804;2022-10-18T06:09:36;3.15;;;1.02;;
10711;SDS011;5407;51.234;6.804;2022-10-18T06:12:03;1.00;;;1.00;;
10711;SDS011;5407;51.234;6.804;2022-10-18T06:14:33;1.17;;;1.08;;
10711;SDS011;5407;51.234;6.804;2022-10-18T06:17:01;1.08;;;1.00;;
10711;SDS011;5407;51.234;6.804;2022-10-18T06:19:28;2.22;;;1.17;;
10711;SDS011;5407;51.234;6.804;2022-10-18T06:21:55;2.08;;;1.35;;
10711;SDS011;5407;51.234;6.804;2022-10-18T06:24:22;1.30;;;1.20;;
10711;SDS011;5407;51.234;6.804;2022-10-18T06:26:48;1.02;;;1.02;;
10711;SDS011;5407;51.234;6.804;2022-10-18T06:29:15;2.95;;;1.33;;
10711;SDS011;5407;51.234;6.804;2022-10-18T06:31:42;1.13;;;1.02;;
10711;SDS011;5407;51.234;6.804;2022-10-18T06:34:10;2.28;;;1.25;;
10711;SDS011;5407;51.234;6.804;2022-10-18T06:36:37;1.35;;;1.13;;
10711;SDS011;5407;51.234;6.804;2022-10-18T06:39:04;1.77;;;1.35;;
10711;SDS011;5407;51.234;6.804;2022-10-18T06:41:31;1.35;;;0.90;;
10711;SDS011;5407;51.234;6.804;2022-10-18T06:44:16;2.05;;;1.10;;
10711;SDS011;5407;51.234;6.804;2022-10-18T06:46:43;2.03;;;1.23;;
10711;SDS011;5407;51.234;6.804;2022-10-18T06:49:13;1.55;;;1.20;;
10711;SDS011;5407;51.234;6.804;2022-10-18T06:51:40;1.30;;;1.20;;
10711;SDS011;5407;51.234;6.804;2022-10-18T06:54:08;2.05;;;1.20;;
10711;SDS011;5407;51.234;6.804;2022-10-18T06:56:35;1.08;;;1.08;;
10711;SDS011;5407;51.234;6.804;2022-10-18T06:59:02;1.40;;;1.10;;
10711;SDS011;5407;51.234;6.804;2022-10-18T07:01:30;1.25;;;1.10;;
10711;SDS011;5407;51.234;6.804;2022-10-18T07:03:57;1.35;;;1.20;;
10711;SDS011;5407;51.234;6.804;2022-10-18T07:06:26;1.08;;;0.98;;
10711;SDS011;5407;51.234;6.804;2022-10-18T07:08:53;1.60;;;1.02;;
10711;SDS011;5407;51.234;6.804;2022-10-18T07:11:21;2.13;;;1.20;;
10711;SDS011;5407;51.234;6.804;2022-10-18T07:13:49;1.58;;;1.30;;
10711;SDS011;5407;51.234;6.804;2022-10-18T07:16:18;1.50;;;1.40;;
10711;SDS011;5407;51.234;6.804;2022-10-18T07:18:45;1.58;;;1.40;;
10711;SDS011;5407;51.234;6.804;2022-10-18T07:21:14;1.65;;;1.30;;
10711;SDS011;5407;51.234;6.804;2022-10-18T07:23:43;1.40;;;1.30;;
10711;SDS011;5407;51.234;6.804;2022-10-18T07:26:11;1.70;;;1.20;;
10711;SDS011;5407;51.234;6.804;2022-10-18T07:28:40;1.30;;;1.20;;
10711;SDS011;5407;51.234;6.804;2022-10-18T07:31:10;1.88;;;1.27;;
10711;SDS011;5407;51.234;6.804;2022-10-18T07:33:38;1.58;;;1.30;;
10711;SDS011;5407;51.234;6.804;2022-10-18T07:36:07;1.60;;;1.33;;
10711;SDS011;5407;51.234;6.804;2022-10-18T07:38:35;1.50;;;1.40;;
10711;SDS011;5407;51.234;6.804;2022-10-18T07:41:04;1.02;;;1.00;;
10711;SDS011;5407;51.234;6.804;2022-10-18T07:43:32;2.15;;;1.25;;
10711;SDS011;5407;51.234;6.804;2022-10-18T07:46:00;2.30;;;1.52;;
10711;SDS011;5407;51.234;6.804;2022-10-18T07:48:28;1.42;;;1.17;;
10711;SDS011;5407;51.234;6.804;2022-10-18T07:50:56;1.48;;;1.30;;
10711;SDS011;5407;51.234;6.804;2022-10-18T07:53:23;1.35;;;1.25;;
10711;SDS011;5407;51.234;6.804;2022-10-18T07:55:50;1.50;;;1.40;;
10711;SDS011;5407;51.234;6.804;2022-10-18T07:58:19;1.45;;;1.35;;
10711;SDS011;5407;51.234;6.804;2022-10-18T08:00:45;1.52;;;1.42;;
10711;SDS011;5407;51.234;6.804;2022-10-18T08:03:12;1.65;;;1.40;;
10711;SDS011;5407;51.234;6.804;2022-10-18T08:05:39;1.48;;;1.38;;
10711;SDS011;5407;51.234;6.804;2022-10-18T08:08:06;1.38;;;1.27;;
10711;SDS011;5407;51.234;6.804;2022-10-18T08:10:33;2.50;;;1.50;;
10711;SDS011;5407;51.234;6.804;2022-10-18T08:13:00;1.40;;;1.30;;
10711;SDS011;5407;51.234;6.804;2022-10-18T08:15:28;1.70;;;1.55;;
10711;SDS011;5407;51.234;6.804;2022-10-18T08:17:55;1.83;;;1.60;;
10711;SDS011;5407;51.234;6.804;2022-10-18T08:20:22;1.63;;;1.50;;
10711;SDS011;5407;51.234;6.804;2022-10-18T08:22:49;2.15;;;1.42;;
10711;SDS011;5407;51.234;6.804;2022-10-18T08:25:16;3.92;;;1.73;;
10711;SDS011;5407;51.234;6.804;2022-10-18T08:27:44;2.22;;;1.98;;
10711;SDS011;5407;51.234;6.804;2022-10-18T08:30:11;2.25;;;1.80;;
10711;SDS011;5407;51.234;6.804;2022-10-18T08:32:39;2.95;;;1.98;;
10711;SDS011;5407;51.234;6.804;2022-10-18T08:35:07;1.75;;;1.58;;
10711;SDS011;5407;51.234;6.804;2022-10-18T08:37:34;1.67;;;1.58;;
10711;SDS011;5407;51.234;6.804;2022-10-18T08:40:01;4.28;;;2.00;;
10711;SDS011;5407;51.234;6.804;2022-10-18T08:42:35;2.28;;;2.05;;
10711;SDS011;5407;51.234;6.804;2022-10-18T08:45:14;3.38;;;2.03;;
10711;SDS011;5407;51.234;6.804;2022-10-18T08:47:43;2.65;;;2.10;;
10711;SDS011;5407;51.234;6.804;2022-10-18T08:50:14;4.65;;;2.10;;
10711;SDS011;5407;51.234;6.804;2022-10-18T08:52:44;2.45;;;2.00;;
10711;SDS011;5407;51.234;6.804;2022-10-18T08:55:18;2.70;;;2.15;;
10711;SDS011;5407;51.234;6.804;2022-10-18T08:57:50;2.42;;;2.20;;
10711;SDS011;5407;51.234;6.804;2022-10-18T09:00:18;2.85;;;2.13;;
10711;SDS011;5407;51.234;6.804;2022-10-18T09:02:51;2.25;;;2.05;;
10711;SDS011;5407;51.234;6.804;2022-10-18T09:05:30;2.50;;;2.28;;
10711;SDS011;5407;51.234;6.804;2022-10-18T09:08:13;2.67;;;2.22;;
10711;SDS011;5407;51.234;6.804;2022-10-18T09:10:52;3.40;;;2.42;;
10711;SDS011;5407;51.234;6.804;2022-10-18T09:13:32;3.17;;;2.30;;
10711;SDS011;5407;51.234;6.804;2022-10-18T09:16:15;2.83;;;2.53;;
10711;SDS011;5407;51.234;6.804;2022-10-18T09:18:50;2.30;;;2.10;;
10711;SDS011;5407;51.234;6.804;2022-10-18T09:21:26;2.90;;;2.33;;
10711;SDS011;5407;51.234;6.804;2022-10-18T09:24:02;3.08;;;2.30;;
10711;SDS011;5407;51.234;6.804;2022-10-18T09:26:39;2.55;;;2.30;;
10711;SDS011;5407;51.234;6.804;2022-10-18T09:32:04;3.17;;;2.50;;
10711;SDS011;5407;51.234;6.804;2022-10-18T09:34:48;3.10;;;2.70;;
10711;SDS011;5407;51.234;6.804;2022-10-18T09:37:18;4.57;;;2.92;;
10711;SDS011;5407;51.234;6.804;2022-10-18T09:39:48;3.80;;;2.80;;
10711;SDS011;5407;51.234;6.804;2022-10-18T09:42:17;4.47;;;3.10;;
10711;SDS011;5407;51.234;6.804;2022-10-18T09:44:52;3.97;;;2.58;;
10711;SDS011;5407;51.234;6.804;2022-10-18T09:47:23;3.30;;;3.00;;
10711;SDS011;5407;51.234;6.804;2022-10-18T09:49:56;4.15;;;3.08;;
10711;SDS011;5407;51.234;6.804;2022-10-18T09:52:27;3.33;;;3.00;;
10711;SDS011;5407;51.234;6.804;2022-10-18T09:55:02;3.70;;;3.15;;
10711;SDS011;5407;51.234;6.804;2022-10-18T09:57:36;5.68;;;3.20;;
10711;SDS011;5407;51.234;6.804;2022-10-18T10:00:12;3.70;;;3.40;;
10711;SDS011;5407;51.234;6.804;2022-10-18T10:02:42;3.45;;;3.15;;
10711;SDS011;5407;51.234;6.804;2022-10-18T10:05:12;3.50;;;3.20;;
10711;SDS011;5407;51.234;6.804;2022-10-18T10:07:41;4.30;;;3.72;;
10711;SDS011;5407;51.234;6.804;2022-10-18T10:10:11;4.28;;;3.67;;
10711;SDS011;5407;51.234;6.804;2022-10-18T10:12:42;3.60;;;3.30;;
10711;SDS011;5407;51.234;6.804;2022-10-18T10:15:16;3.78;;;3.45;;
10711;SDS011;5407;51.234;6.804;2022-10-18T10:17:52;3.75;;;3.45;;
10711;SDS011;5407;51.234;6.804;2022-10-18T10:20:23;4.10;;;3.70;;
10711;SDS011;5407;51.234;6.804;2022-10-18T10:22:52;4.60;;;3.60;;
10711;SDS011;5407;51.234;6.804;2022-10-18T10:25:21;4.10;;;3.72;;
10711;SDS011;5407;51.234;6.804;2022-10-18T10:27:51;4.53;;;4.05;;
10711;SDS011;5407;51.234;6.804;2022-10-18T10:30:23;3.75;;;3.40;;
10711;SDS011;5407;51.234;6.804;2022-10-18T10:32:52;4.00;;;3.60;;
10711;SDS011;5407;51.234;6.804;2022-10-18T10:35:21;4.47;;;4.05;;
10711;SDS011;5407;51.234;6.804;2022-10-18T10:37:54;5.28;;;4.10;;
10711;SDS011;5407;51.234;6.804;2022-10-18T10:40:22;4.55;;;4.10;;
10711;SDS011;5407;51.234;6.804;2022-10-18T10:42:54;5.88;;;4.80;;
10711;SDS011;5407;51.234;6.804;2022-10-18T10:45:25;4.32;;;3.92;;
10711;SDS011;5407;51.234;6.804;2022-10-18T10:48:00;5.28;;;4.45;;
10711;SDS011;5407;51.234;6.804;2022-10-18T10:50:30;5.95;;;4.78;;
10711;SDS011;5407;51.234;6.804;2022-10-18T10:52:59;6.78;;;4.63;;
10711;SDS011;5407;51.234;6.804;2022-10-18T10:55:27;6.00;;;4.55;;
10711;SDS011;5407;51.234;6.804;2022-10-18T10:58:00;5.28;;;4.68;;
10711;SDS011;5407;51.234;6.804;2022-10-18T11:00:34;5.93;;;4.75;;
10711;SDS011;5407;51.234;6.804;2022-10-18T11:03:04;5.25;;;4.75;;
10711;SDS011;5407;51.234;6.804;2022-10-18T11:05:42;4.97;;;4.47;;
10711;SDS011;5407;51.234;6.804;2022-10-18T11:08:11;5.18;;;4.68;;
10711;SDS011;5407;51.234;6.804;2022-10-18T11:10:44;5.70;;;4.90;;
10711;SDS011;5407;51.234;6.804;2022-10-18T11:13:32;5.40;;;4.90;;
10711;SDS011;5407;51.234;6.804;2022-10-18T11:16:13;5.72;;;5.10;;
10711;SDS011;5407;51.234;6.804;2022-10-18T11:18:45;6.10;;;5.50;;
10711;SDS011;5407;51.234;6.804;2022-10-18T11:21:20;5.75;;;5.18;;
10711;SDS011;5407;51.234;6.804;2022-10-18T11:23:50;6.85;;;6.03;;
10711;SDS011;5407;51.234;6.804;2022-10-18T11:29:20;7.13;;;6.03;;
10711;SDS011;5407;51.234;6.804;2022-10-18T11:31:59;7.13;;;6.43;;
10711;SDS011;5407;51.234;6.804;2022-10-18T11:34:42;7.05;;;6.35;;
10711;SDS011;5407;51.234;6.804;2022-10-18T11:37:24;7.07;;;6.30;;
10711;SDS011;5407;51.234;6.804;2022-10-18T11:40:03;7.93;;;7.00;;
10711;SDS011;5407;51.234;6.804;2022-10-18T11:42:40;8.18;;;6.55;;
10711;SDS011;5407;51.234;6.804;2022-10-18T11:45:18;8.45;;;7.38;;
10711;SDS011;5407;51.234;6.804;2022-10-18T11:47:56;7.95;;;7.03;;
10711;SDS011;5407;51.234;6.804;2022-10-18T11:50:32;8.07;;;7.28;;
10711;SDS011;5407;51.234;6.804;2022-10-18T11:53:07;8.27;;;7.47;;
10711;SDS011;5407;51.234;6.804;2022-10-18T11:55:46;10.10;;;7.53;;
10711;SDS011;5407;51.234;6.804;2022-10-18T11:58:25;7.70;;;6.90;;
10711;SDS011;5407;51.234;6.804;2022-10-18T12:01:05;7.75;;;7.00;;
10711;SDS011;5407;51.234;6.804;2022-10-18T12:03:44;9.45;;;7.50;;
10711;SDS011;5407;51.234;6.804;2022-10-18T12:06:19;8.57;;;7.55;;
10711;SDS011;5407;51.234;6.804;2022-10-18T12:08:51;9.20;;;7.43;;
10711;SDS011;5407;51.234;6.804;2022-10-18T12:11:25;7.97;;;7.18;;
10711;SDS011;5407;51.234;6.804;2022-10-18T12:13:56;10.75;;;7.60;;
10711;SDS011;5407;51.234;6.804;2022-10-18T12:16:26;9.15;;;7.32;;
10711;SDS011;5407;51.234;6.804;2022-10-18T12:18:56;8.43;;;7.10;;
10711;SDS011;5407;51.234;6.804;2022-10-18T12:21:26;9.82;;;7.68;;
10711;SDS011;5407;51.234;6.804;2022-10-18T12:23:58;8.48;;;7.50;;
10711;SDS011;5407;51.234;6.804;2022-10-18T12:26:28;7.63;;;6.82;;
10711;SDS011;5407;51.234;6.804;2022-10-18T12:29:00;7.85;;;7.05;;
10711;SDS011;5407;51.234;6.804;2022-10-18T12:31:36;8.30;;;7.35;;
10711;SDS011;5407;51.234;6.804;2022-10-18T12:34:08;7.65;;;6.80;;
10711;SDS011;5407;51.234;6.804;2022-10-18T12:36:58;8.50;;;7.70;;
10711;SDS011;5407;51.234;6.804;2022-10-18T12:39:44;7.85;;;7.07;;
10711;SDS011;5407;51.234;6.804;2022-10-18T12:42:17;8.27;;;6.93;;
10711;SDS011;5407;51.234;6.804;2022-10-18T12:44:47;7.75;;;7.00;;
10711;SDS011;5407;51.234;6.804;2022-10-18T12:47:20;7.90;;;7.20;;
10711;SDS011;5407;51.234;6.804;2022-10-18T12:49:54;7.90;;;7.20;;
10711;SDS011;5407;51.234;6.804;2022-10-18T12:52:22;7.80;;;7.00;;
10711;SDS011;5407;51.234;6.804;2022-10-18T12:55:04;7.88;;;7.07;;
10711;SDS011;5407;51.234;6.804;2022-10-18T13:00:57;7.40;;;6.60;;
10711;SDS011;5407;51.234;6.804;2022-10-18T13:03:38;7.70;;;7.00;;
10711;SDS011;5407;51.234;6.804;2022-10-18T13:06:55;7.82;;;6.90;;
10711;SDS011;5407;51.234;6.804;2022-10-18T13:09:32;7.78;;;6.43;;
10711;SDS011;5407;51.234;6.804;2022-10-18T13:12:32;8.82;;;7.05;;
10711;SDS011;5407;51.234;6.804;2022-10-18T13:15:15;7.15;;;6.43;;
10711;SDS011;5407;51.234;6.804;2022-10-18T13:17:53;7.88;;;6.97;;
10711;SDS011;5407;51.234;6.804;2022-10-18T13:20:26;7.68;;;6.93;;
10711;SDS011;5407;51.234;6.804;2022-10-18T13:23:08;7.35;;;6.60;;
10711;SDS011;5407;51.234;6.804;2022-10-18T13:25:53;7.53;;;6.32;;
10711;SDS011;5407;51.234;6.804;2022-10-18T13:28:29;7.20;;;6.50;;
10711;SDS011;5407;51.234;6.804;2022-10-18T13:31:17;8.30;;;7.07;;
10711;SDS011;5407;51.234;6.804;2022-10-18T13:33:48;6.45;;;5.93;;
10711;SDS011;5407;51.234;6.804;2022-10-18T13:36:21;7.78;;;6.97;;
10711;SDS011;5407;51.234;6.804;2022-10-18T13:39:00;6.60;;;6.00;;
10711;SDS011;5407;51.234;6.804;2022-10-18T13:41:30;7.18;;;6.47;;
10711;SDS011;5407;51.234;6.804;2022-10-18T13:44:26;6.68;;;5.97;;
10711;SDS011;5407;51.234;6.804;2022-10-18T13:53:04;7.60;;;6.50;;
10711;SDS011;5407;51.234;6.804;2022-10-18T13:56:23;6.32;;;5.72;;
10711;SDS011;5407;51.234;6.804;2022-10-18T14:02:26;7.63;;;5.88;;
10711;SDS011;5407;51.234;6.804;2022-10-18T14:05:17;6.38;;;5.63;;
10711;SDS011;5407;51.234;6.804;2022-10-18T14:07:51;6.47;;;5.72;;
10711;SDS011;5407;51.234;6.804;2022-10-18T14:10:34;6.28;;;5.68;;
10711;SDS011;5407;51.234;6.804;2022-10-18T14:13:13;5.90;;;5.40;;
10711;SDS011;5407;51.234;6.804;2022-10-18T14:15:46;6.28;;;5.38;;
10711;SDS011;5407;51.234;6.804;2022-10-18T14:18:19;6.57;;;5.47;;
10711;SDS011;5407;51.234;6.804;2022-10-18T14:20:52;5.63;;;4.90;;
10711;SDS011;5407;51.234;6.804;2022-10-18T14:23:24;5.47;;;5.07;;
10711;SDS011;5407;51.234;6.804;2022-10-18T14:25:55;6.93;;;5.47;;
10711;SDS011;5407;51.234;6.804;2022-10-18T14:28:31;5.95;;;5.35;;
10711;SDS011;5407;51.234;6.804;2022-10-18T14:30:59;5.70;;;5.20;;
10711;SDS011;5407;51.234;6.804;2022-10-18T14:33:30;5.82;;;5.22;;
10711;SDS011;5407;51.234;6.804;2022-10-18T14:36:00;5.57;;;5.07;;
10711;SDS011;5407;51.234;6.804;2022-10-18T14:38:30;5.40;;;4.90;;
10711;SDS011;5407;51.234;6.804;2022-10-18T14:41:12;5.35;;;4.85;;
10711;SDS011;5407;51.234;6.804;2022-10-18T14:43:41;5.03;;;4.63;;
10711;SDS011;5407;51.234;6.804;2022-10-18T14:46:16;5.32;;;4.82;;
10711;SDS011;5407;51.234;6.804;2022-10-18T14:48:54;5.60;;;4.72;;
10711;SDS011;5407;51.234;6.804;2022-10-18T14:51:23;5.35;;;4.65;;
10711;SDS011;5407;51.234;6.804;2022-10-18T14:53:51;4.72;;;4.25;;
10711;SDS011;5407;51.234;6.804;2022-10-18T14:56:20;4.80;;;4.40;;
10711;SDS011;5407;51.234;6.804;2022-10-18T14:58:49;5.03;;;4.53;;
10711;SDS011;5407;51.234;6.804;2022-10-18T15:01:18;5.00;;;4.53;;
10711;SDS011;5407;51.234;6.804;2022-10-18T15:03:47;4.88;;;4.45;;
10711;SDS011;5407;51.234;6.804;2022-10-18T15:06:16;5.35;;;4.45;;
10711;SDS011;5407;51.234;6.804;2022-10-18T15:08:45;4.95;;;4.47;;
10711;SDS011;5407;51.234;6.804;2022-10-18T15:11:14;4.78;;;4.38;;
10711;SDS011;5407;51.234;6.804;2022-10-18T15:13:43;5.20;;;4.03;;
10711;SDS011;5407;51.234;6.804;2022-10-18T15:16:15;4.97;;;4.50;;
10711;SDS011;5407;51.234;6.804;2022-10-18T15:18:42;4.60;;;4.20;;
10711;SDS011;5407;51.234;6.804;2022-10-18T15:21:21;4.18;;;3.83;;
10711;SDS011;5407;51.234;6.804;2022-10-18T15:23:49;4.97;;;4.15;;
10711;SDS011;5407;51.234;6.804;2022-10-18T15:26:18;4.68;;;4.00;;
10711;SDS011;5407;51.234;6.804;2022-10-18T15:28:50;5.50;;;4.53;;
10711;SDS011;5407;51.234;6.804;2022-10-18T15:31:24;4.07;;;3.70;;
10711;SDS011;5407;51.234;6.804;2022-10-18T15:33:53;5.07;;;3.50;;
10711;SDS011;5407;51.234;6.804;2022-10-18T15:36:34;3.97;;;3.67;;
10711;SDS011;5407;51.234;6.804;2022-10-18T15:39:05;3.88;;;3.55;;
10711;SDS011;5407;51.234;6.804;2022-10-18T15:41:40;4.90;;;3.78;;
10711;SDS011;5407;51.234;6.804;2022-10-18T15:44:21;4.20;;;3.80;;
10711;SDS011;5407;51.234;6.804;2022-10-18T15:46:50;3.80;;;3.50;;